Time;durP1;ratioP1;P1;durP2;ratioP2;P2;SDS_P1;SDS_P2;PMS_P1;PMS_P2;Temp;Humidity;BMP_temperature;BMP_pressure;BME280_temperature;BME280_humidity;BME280_pressure;Samples;Min_cycle;Max_cycle;Signal;HPM_P1;HPM_P2
2023/12/22 00:01:52;;;;;;;1.80;1.23;;;;;;;6.69;100.00;153078.81;5010863;28;20466;-75
2023/12/22 00:04:19;;;;;;;2.30;0.80;;;;;;;6.67;100.00;153073.66;4975209;28;20477;-75
2023/12/22 00:06:48;;;;;;;1.00;0.73;;;;;;;6.65;100.00;153069.78;4995622;28;20485;-75
2023/12/22 00:09:16;;;;;;;1.93;1.20;;;;;;;6.68;100.00;153077.50;4970511;28;20517;-75
2023/12/22 00:11:42;;;;;;;2.10;1.23;;;;;;;6.73;100.00;153089.13;4978361;28;20460;-75
2023/12/22 00:14:09;;;;;;;4.30;1.57;;;;;;;6.74;100.00;153093.03;4971041;28;20465;-75
2023/12/22 00:16:37;;;;;;;5.33;1.70;;;;;;;6.72;100.00;153086.56;4988901;28;20457;-75
2023/12/22 00:19:05;;;;;;;2.37;1.40;;;;;;;6.75;100.00;153094.31;4979561;28;20932;-75
2023/12/22 00:21:32;;;;;;;5.33;1.63;;;;;;;6.75;100.00;153095.56;4988044;28;20850;-75
2023/12/22 00:23:58;;;;;;;4.00;2.00;;;;;;;6.80;100.00;153105.91;4970725;28;20449;-74
2023/12/22 00:26:26;;;;;;;5.73;2.40;;;;;;;6.78;100.00;153100.78;4987000;28;20508;-74
2023/12/22 00:28:53;;;;;;;2.27;1.67;;;;;;;6.81;100.00;153109.78;4986923;28;20460;-75
2023/12/22 00:31:19;;;;;;;3.40;2.07;;;;;;;6.82;100.00;153112.38;4988347;28;20480;-75
2023/12/22 00:33:46;;;;;;;5.20;1.73;;;;;;;6.80;100.00;153107.22;4989733;28;20462;-75
2023/12/22 00:36:13;;;;;;;3.53;1.53;;;;;;;6.82;100.00;153111.06;4997566;28;21101;-75
2023/12/22 00:38:39;;;;;;;3.17;1.60;;;;;;;6.82;100.00;153112.38;4970834;28;20531;-74
2023/12/22 00:41:06;;;;;;;2.93;1.93;;;;;;;6.84;100.00;153117.53;4970589;28;20454;-75
2023/12/22 00:43:34;;;;;;;3.37;1.70;;;;;;;6.85;100.00;153120.13;4990341;28;20480;-74
2023/12/22 00:46:00;;;;;;;2.40;1.70;;;;;;;6.88;100.00;153127.88;4969757;28;20509;-75
2023/12/22 00:48:27;;;;;;;2.03;1.23;;;;;;;6.89;100.00;153130.44;4986641;28;20480;-74
2023/12/22 00:50:53;;;;;;;2.03;1.30;;;;;;;6.86;100.00;153122.69;4970433;28;20468;-74
2023/12/22 00:53:20;;;;;;;2.30;1.20;;;;;;;6.83;100.00;153114.94;4970756;28;20831;-74
2023/12/22 00:55:46;;;;;;;3.20;1.50;;;;;;;6.73;100.00;153090.41;4967982;28;20813;-75
2023/12/22 00:58:13;;;;;;;3.80;1.80;;;;;;;6.69;100.00;153078.81;4974839;28;20457;-75
2023/12/22 01:00:41;;;;;;;3.00;1.23;;;;;;;6.69;100.00;153078.81;4987912;28;20488;-75
2023/12/22 01:03:07;;;;;;;3.00;1.40;;;;;;;6.69;100.00;153078.81;4989708;28;20484;-74
2023/12/22 01:05:34;;;;;;;5.57;2.33;;;;;;;6.67;100.00;153074.91;4987760;28;20457;-74
2023/12/22 01:08:00;;;;;;;5.50;1.80;;;;;;;6.63;100.00;153063.31;4987578;28;20489;-75
2023/12/22 01:10:27;;;;;;;3.17;1.80;;;;;;;6.63;100.00;153063.31;4985261;28;20829;-75
2023/12/22 01:12:53;;;;;;;5.13;1.50;;;;;;;6.62;100.00;153060.72;4985670;28;21071;-75
2023/12/22 01:15:20;;;;;;;2.23;1.23;;;;;;;6.62;100.00;153060.72;4990114;28;20889;-74
2023/12/22 01:17:56;;;;;;;5.70;2.20;;;;;;;6.63;100.00;153064.63;4979946;28;20452;-74
2023/12/22 01:20:22;;;;;;;5.40;1.63;;;;;;;6.63;100.00;153063.31;4973323;28;20457;-74
2023/12/22 01:22:49;;;;;;;2.40;1.30;;;;;;;6.62;100.00;153060.72;4994759;28;20457;-75
2023/12/22 01:25:15;;;;;;;2.60;1.80;;;;;;;6.60;100.00;153055.56;4990005;28;20468;-75
2023/12/22 01:27:42;;;;;;;3.27;1.37;;;;;;;6.57;100.00;153049.13;4972362;28;20477;-75
2023/12/22 01:30:09;;;;;;;2.33;1.80;;;;;;;6.58;100.00;153051.72;4988776;28;20469;-75
2023/12/22 01:32:36;;;;;;;3.20;1.60;;;;;;;6.59;100.00;153053.00;4991891;28;20529;-75
2023/12/22 01:35:09;;;;;;;2.40;1.80;;;;;;;6.57;100.00;153047.81;4991640;28;20453;-75
2023/12/22 01:37:35;;;;;;;1.97;1.30;;;;;;;6.58;100.00;153050.41;4958481;28;20454;-74
2023/12/22 01:40:02;;;;;;;3.83;1.57;;;;;;;6.56;100.00;153045.25;4994542;28;20453;-75
2023/12/22 01:42:29;;;;;;;3.67;1.50;;;;;;;6.55;100.00;153042.66;4994608;28;21057;-75
2023/12/22 01:44:55;;;;;;;2.27;0.93;;;;;;;6.55;100.00;153042.66;4988169;28;20492;-75
2023/12/22 01:47:22;;;;;;;1.60;1.17;;;;;;;6.51;100.00;153032.38;4989187;28;21033;-75
2023/12/22 01:49:49;;;;;;;1.60;0.80;;;;;;;6.51;100.00;153032.38;4989300;28;20457;-74
2023/12/22 01:52:17;;;;;;;3.43;1.30;;;;;;;6.50;100.00;153031.06;4994250;28;20452;-82
2023/12/22 01:54:44;;;;;;;5.50;1.10;;;;;;;6.45;100.00;153018.16;5002870;28;20453;-82
2023/12/22 01:57:10;;;;;;;3.40;0.87;;;;;;;6.45;100.00;153016.88;4986690;28;20484;-82
2023/12/22 01:59:37;;;;;;;2.40;0.70;;;;;;;6.45;100.00;153016.88;5004989;28;20460;-82
2023/12/22 02:02:04;;;;;;;1.27;0.80;;;;;;;6.41;100.00;153006.53;4971444;28;20449;-82
2023/12/22 02:04:31;;;;;;;2.47;0.60;;;;;;;6.39;100.00;153001.38;5003948;28;20480;-74
2023/12/22 02:06:59;;;;;;;1.23;0.70;;;;;;;6.41;100.00;153006.53;5006165;28;21113;-75
2023/12/22 02:09:27;;;;;;;1.40;0.70;;;;;;;6.43;100.00;153013.03;4987700;28;20464;-75
2023/12/22 02:11:54;;;;;;;1.70;0.90;;;;;;;6.44;100.00;153014.28;4992480;28;20456;-74
2023/12/22 02:14:21;;;;;;;2.20;0.90;;;;;;;6.41;100.00;153006.53;5005371;28;20460;-75
2023/12/22 02:16:53;;;;;;;3.97;0.90;;;;;;;6.42;100.00;153010.41;5003823;28;20461;-74
2023/12/22 02:19:30;;;;;;;1.00;0.53;;;;;;;6.40;100.00;153003.97;5007098;28;20444;-75
2023/12/22 02:22:04;;;;;;;3.67;0.80;;;;;;;6.37;100.00;152996.22;4988005;28;20966;-75
2023/12/22 02:24:32;;;;;;;1.63;0.80;;;;;;;6.36;100.00;152993.63;4988780;28;20483;-75
2023/12/22 02:27:04;;;;;;;5.80;1.40;;;;;;;6.30;100.00;152979.41;5004336;28;20548;-75
2023/12/22 02:29:34;;;;;;;3.33;0.87;;;;;;;6.31;100.00;152982.03;4992481;28;20518;-75
2023/12/22 02:32:03;;;;;;;2.10;0.90;;;;;;;6.28;100.00;152972.97;5012159;28;20443;-74
2023/12/22 02:34:31;;;;;;;3.53;1.00;;;;;;;6.26;100.00;152969.13;5008919;28;20534;-75
2023/12/22 02:36:58;;;;;;;2.90;1.40;;;;;;;6.30;100.00;152978.16;5010935;28;20539;-74
2023/12/22 02:39:24;;;;;;;2.10;0.93;;;;;;;6.28;100.00;152972.97;5012086;28;20858;-74
2023/12/22 02:41:52;;;;;;;3.10;1.57;;;;;;;6.27;100.00;152971.72;5012929;28;20452;-74
2023/12/22 02:44:18;;;;;;;2.67;1.37;;;;;;;6.32;100.00;152983.31;5005837;28;20455;-75
2023/12/22 02:46:45;;;;;;;4.23;1.00;;;;;;;6.32;100.00;152983.31;5007613;28;20441;-75
2023/12/22 02:49:13;;;;;;;3.30;1.20;;;;;;;6.30;100.00;152978.16;5008988;28;20468;-74
2023/12/22 02:51:39;;;;;;;1.77;0.90;;;;;;;6.28;100.00;152972.97;5010571;28;20706;-75
2023/12/22 02:54:06;;;;;;;3.70;1.53;;;;;;;6.28;100.00;152972.97;4989771;28;20461;-75
2023/12/22 02:56:32;;;;;;;2.50;1.30;;;;;;;6.28;100.00;152974.28;4991224;28;20483;-75
2023/12/22 02:59:00;;;;;;;3.00;1.50;;;;;;;6.31;100.00;152980.72;4999456;28;20444;-75
2023/12/22 03:01:27;;;;;;;4.10;1.30;;;;;;;6.30;100.00;152978.16;4987966;28;20461;-75
2023/12/22 03:03:53;;;;;;;4.63;1.43;;;;;;;6.28;100.00;152974.28;5005316;28;20759;-75
2023/12/22 03:06:20;;;;;;;2.00;1.40;;;;;;;6.27;100.00;152971.72;4981637;28;20818;-75
2023/12/22 03:08:46;;;;;;;1.63;1.00;;;;;;;6.30;100.00;152979.41;4974379;28;20477;-75
2023/12/22 03:11:16;;;;;;;3.23;1.40;;;;;;;6.30;100.00;152978.16;5001365;28;20574;-75
2023/12/22 03:13:42;;;;;;;2.20;1.30;;;;;;;6.30;100.00;152978.16;5005868;28;20467;-74
2023/12/22 03:16:10;;;;;;;2.83;1.40;;;;;;;6.31;100.00;152982.03;4998427;28;20444;-75
2023/12/22 03:18:38;;;;;;;1.47;0.90;;;;;;;6.35;100.00;152991.06;4995172;28;20500;-75
2023/12/22 03:21:05;;;;;;;4.07;1.30;;;;;;;6.37;100.00;152996.22;4988807;28;21021;-75
2023/12/22 03:23:32;;;;;;;3.53;1.00;;;;;;;6.34;100.00;152989.78;4992631;28;20472;-75
2023/12/22 03:25:58;;;;;;;2.23;1.10;;;;;;;6.34;100.00;152988.47;5008975;28;20445;-74
2023/12/22 03:28:25;;;;;;;2.30;1.00;;;;;;;6.33;100.00;152985.91;5005702;28;20483;-75
2023/12/22 03:30:51;;;;;;;1.80;1.10;;;;;;;6.31;100.00;152980.72;4997415;28;20501;-75
2023/12/22 03:33:19;;;;;;;2.37;1.00;;;;;;;6.38;100.00;152998.81;5004438;28;20469;-74
2023/12/22 03:35:46;;;;;;;2.10;0.97;;;;;;;6.38;100.00;152998.81;4985106;28;20471;-75
2023/12/22 03:38:12;;;;;;;5.33;1.57;;;;;;;6.41;100.00;153006.53;5007065;28;20452;-75
2023/12/22 03:40:39;;;;;;;1.70;0.90;;;;;;;6.39;100.00;153001.38;5009051;28;20460;-74
2023/12/22 03:43:05;;;;;;;3.17;0.87;;;;;;;6.38;100.00;152998.81;5008972;28;20439;-74
2023/12/22 03:45:32;;;;;;;1.70;1.00;;;;;;;6.35;100.00;152991.06;5006351;28;20873;-82
2023/12/22 03:47:58;;;;;;;2.60;1.10;;;;;;;6.35;100.00;152992.38;5012106;28;20488;-82
2023/12/22 03:50:26;;;;;;;2.93;1.10;;;;;;;6.41;100.00;153006.53;4998754;28;20450;-83
2023/12/22 03:52:53;;;;;;;2.40;1.03;;;;;;;6.42;100.00;153009.13;5000606;28;20456;-83
2023/12/22 03:55:19;;;;;;;2.43;0.90;;;;;;;6.43;100.00;153011.72;5004897;28;20515;-82
2023/12/22 03:57:46;;;;;;;3.43;0.87;;;;;;;6.44;100.00;153015.56;5005077;28;20448;-83
2023/12/22 04:00:14;;;;;;;2.33;0.90;;;;;;;6.43;100.00;153011.72;5008385;28;20464;-83
2023/12/22 04:02:41;;;;;;;3.40;1.17;;;;;;;6.39;100.00;153001.38;4988308;28;20551;-83
2023/12/22 04:05:08;;;;;;;2.60;1.00;;;;;;;6.31;100.00;152982.03;5007772;28;20546;-83
2023/12/22 04:07:36;;;;;;;1.70;1.10;;;;;;;6.27;100.00;152970.41;5002407;28;20441;-82
2023/12/22 04:10:03;;;;;;;2.10;0.93;;;;;;;6.26;100.00;152967.81;4992603;28;20538;-83
2023/12/22 04:12:29;;;;;;;1.70;1.20;;;;;;;6.24;100.00;152962.66;4997273;28;20456;-83
2023/12/22 04:14:56;;;;;;;2.07;1.10;;;;;;;6.22;100.00;152957.53;4979897;28;20457;-83
2023/12/22 04:17:22;;;;;;;3.83;1.37;;;;;;;6.19;100.00;152949.78;4993654;28;20429;-82
2023/12/22 04:19:49;;;;;;;2.40;1.10;;;;;;;6.17;100.00;152944.63;5006433;28;20452;-82
2023/12/22 04:22:15;;;;;;;7.77;1.60;;;;;;;6.18;100.00;152947.19;4995639;28;21110;-82
2023/12/22 04:24:43;;;;;;;2.20;1.30;;;;;;;6.17;100.00;152944.63;4978905;28;20450;-83
2023/12/22 04:27:09;;;;;;;3.83;1.37;;;;;;;6.20;100.00;152952.31;4993169;28;20479;-81
2023/12/22 04:29:36;;;;;;;2.50;1.40;;;;;;;6.17;100.00;152944.63;5005783;28;20468;-83
2023/12/22 04:32:03;;;;;;;1.70;1.07;;;;;;;6.20;100.00;152952.31;5003819;28;20865;-81
2023/12/22 04:34:30;;;;;;;4.40;1.27;;;;;;;6.16;100.00;152942.03;5007658;28;20445;-84
2023/12/22 04:36:56;;;;;;;1.80;1.10;;;;;;;6.16;100.00;152942.03;5007220;28;20453;-81
2023/12/22 04:39:23;;;;;;;8.10;1.33;;;;;;;6.17;100.00;152944.63;5007378;28;20460;-83
2023/12/22 04:41:51;;;;;;;3.30;1.03;;;;;;;6.13;100.00;152936.88;5008883;28;20448;-82
2023/12/22 04:44:17;;;;;;;3.73;1.10;;;;;;;6.14;100.00;152939.44;5003840;28;20605;-82
2023/12/22 04:46:44;;;;;;;2.03;1.10;;;;;;;6.14;100.00;152938.19;5006277;28;20507;-83
2023/12/22 04:49:10;;;;;;;2.27;1.67;;;;;;;6.14;100.00;152939.44;4982646;28;20480;-82
2023/12/22 04:51:37;;;;;;;1.87;0.80;;;;;;;6.17;100.00;152944.63;4991378;28;20444;-83
2023/12/22 04:54:03;;;;;;;3.27;0.93;;;;;;;6.14;100.00;152939.44;5004511;28;20492;-83
2023/12/22 04:56:30;;;;;;;3.33;1.00;;;;;;;6.14;100.00;152938.19;5008153;28;20498;-83
2023/12/22 04:58:58;;;;;;;2.93;1.23;;;;;;;6.13;100.00;152936.88;5005773;28;20452;-83
2023/12/22 05:01:24;;;;;;;2.13;1.20;;;;;;;6.17;100.00;152944.63;5003687;28;20538;-83
2023/12/22 05:03:51;;;;;;;5.67;1.30;;;;;;;6.17;100.00;152944.63;5009546;28;20835;-83
2023/12/22 05:06:17;;;;;;;2.03;0.97;;;;;;;6.13;100.00;152936.88;5006385;28;20843;-83
2023/12/22 05:08:44;;;;;;;2.17;1.10;;;;;;;6.12;100.00;152934.28;5005560;28;20478;-82
2023/12/22 05:11:11;;;;;;;1.50;1.10;;;;;;;6.11;100.00;152931.72;5003224;28;20460;-83
2023/12/22 05:13:37;;;;;;;3.10;1.10;;;;;;;6.11;100.00;152931.72;4989698;28;20463;-83
2023/12/22 05:16:43;;;;;;;4.70;1.40;;;;;;;6.11;100.00;152931.72;4999671;28;20522;-83
2023/12/22 05:19:27;;;;;;;2.30;1.30;;;;;;;6.12;100.00;152932.97;5001611;28;20441;-83
2023/12/22 05:22:14;;;;;;;3.50;1.30;;;;;;;6.11;100.00;152931.72;4998426;28;20469;-82
2023/12/22 05:24:40;;;;;;;4.60;1.50;;;;;;;6.11;100.00;152931.72;5008840;28;20495;-83
2023/12/22 05:27:08;;;;;;;2.67;1.10;;;;;;;6.12;100.00;152934.28;5002573;28;20460;-83
2023/12/22 05:29:34;;;;;;;5.17;1.60;;;;;;;6.13;100.00;152936.88;4989767;28;20479;-83
2023/12/22 05:32:02;;;;;;;3.63;1.83;;;;;;;6.13;100.00;152936.88;4977244;28;20458;-83
2023/12/22 05:34:31;;;;;;;3.53;1.87;;;;;;;6.13;100.00;152936.88;4989000;28;20517;-83
2023/12/22 05:36:58;;;;;;;5.20;1.40;;;;;;;6.14;100.00;152939.44;4969721;28;20546;-82
2023/12/22 05:39:25;;;;;;;2.23;1.30;;;;;;;6.17;100.00;152945.88;5020533;28;20950;-82
2023/12/22 05:41:51;;;;;;;5.93;1.60;;;;;;;6.20;100.00;152953.63;5009454;28;20468;-82
2023/12/22 05:44:18;;;;;;;3.93;2.00;;;;;;;6.20;100.00;152953.63;4997086;28;20952;-82
2023/12/22 05:46:50;;;;;;;2.90;1.10;;;;;;;6.20;100.00;152952.31;5005029;28;21037;-82
2023/12/22 05:49:18;;;;;;;5.23;2.30;;;;;;;6.17;100.00;152944.63;5014820;28;20468;-82
2023/12/22 05:51:44;;;;;;;3.30;1.80;;;;;;;6.16;100.00;152943.31;5021408;28;20542;-82
2023/12/22 05:54:11;;;;;;;5.67;1.50;;;;;;;6.17;100.00;152944.63;4991670;28;20514;-83
2023/12/22 05:56:41;;;;;;;3.67;1.53;;;;;;;6.17;100.00;152944.63;5004271;28;20484;-82
2023/12/22 05:59:08;;;;;;;6.90;2.00;;;;;;;6.22;100.00;152957.53;5010683;28;20448;-83
2023/12/22 06:01:37;;;;;;;3.33;1.37;;;;;;;6.26;100.00;152967.81;5004036;28;20456;-82
2023/12/22 06:04:04;;;;;;;3.20;0.87;;;;;;;6.30;100.00;152978.16;5009924;28;20471;-81
2023/12/22 06:06:31;;;;;;;6.00;2.17;;;;;;;6.30;100.00;152979.41;5003636;28;21029;-82
2023/12/22 06:08:58;;;;;;;1.97;1.13;;;;;;;6.32;100.00;152984.63;4996436;28;20610;-82
2023/12/22 06:11:25;;;;;;;2.67;1.67;;;;;;;6.34;100.00;152988.47;4997353;28;20866;-82
2023/12/22 06:13:51;;;;;;;5.80;1.70;;;;;;;6.34;100.00;152989.78;5000277;28;20533;-82
2023/12/22 06:16:19;;;;;;;7.83;1.87;;;;;;;6.38;100.00;152998.81;4999631;28;20467;-81
2023/12/22 06:18:46;;;;;;;3.00;1.23;;;;;;;6.38;100.00;152998.81;5005189;28;20871;-82
2023/12/22 06:21:12;;;;;;;7.80;1.60;;;;;;;6.38;100.00;152998.81;5001125;28;20507;-82
2023/12/22 06:23:40;;;;;;;5.77;1.87;;;;;;;6.41;100.00;153006.53;5001200;28;20460;-82
2023/12/22 06:26:11;;;;;;;2.00;1.47;;;;;;;6.37;100.00;152996.22;4996656;28;20972;-82
2023/12/22 06:28:39;;;;;;;4.40;1.70;;;;;;;6.34;100.00;152988.47;4999600;28;20588;-83
2023/12/22 06:31:06;;;;;;;5.30;1.80;;;;;;;6.36;100.00;152993.63;4996791;28;20866;-82
2023/12/22 06:33:32;;;;;;;4.57;1.70;;;;;;;6.39;100.00;153001.38;4998556;28;20457;-82
2023/12/22 06:35:59;;;;;;;3.87;1.97;;;;;;;6.38;100.00;153000.06;4995769;28;21093;-82
2023/12/22 06:38:25;;;;;;;3.13;1.40;;;;;;;6.42;100.00;153009.13;4993302;28;20503;-82
2023/12/22 06:40:55;;;;;;;5.53;1.63;;;;;;;6.44;100.00;153014.28;4992987;28;20476;-82
2023/12/22 06:43:21;;;;;;;6.03;1.50;;;;;;;6.41;100.00;153006.53;4990136;28;20443;-82
2023/12/22 06:45:48;;;;;;;8.70;2.27;;;;;;;6.39;100.00;153001.38;4995479;28;20876;-83
2023/12/22 06:48:14;;;;;;;2.63;1.40;;;;;;;6.43;100.00;153011.72;4998972;28;21034;-83
2023/12/22 06:50:52;;;;;;;3.03;1.30;;;;;;;6.39;100.00;153001.38;5001431;28;20583;-83
2023/12/22 06:53:19;;;;;;;3.17;1.50;;;;;;;6.40;100.00;153005.28;5000348;28;20442;-83
2023/12/22 06:56:04;;;;;;;3.10;1.53;;;;;;;6.43;100.00;153011.72;4989756;28;20460;-83
2023/12/22 06:58:32;;;;;;;2.83;1.70;;;;;;;6.45;100.00;153018.16;5014954;28;20476;-82
2023/12/22 07:00:59;;;;;;;5.23;1.43;;;;;;;6.45;100.00;153016.88;4991252;28;20872;-82
2023/12/22 07:03:25;;;;;;;4.67;1.50;;;;;;;6.46;100.00;153019.47;4993326;28;20843;-82
2023/12/22 07:05:52;;;;;;;6.57;1.53;;;;;;;6.47;100.00;153022.00;4989854;28;20462;-82
2023/12/22 07:08:18;;;;;;;3.67;1.23;;;;;;;6.45;100.00;153016.88;4993099;28;20463;-83
2023/12/22 07:10:48;;;;;;;3.90;1.43;;;;;;;6.39;100.00;153001.38;4981231;28;20510;-82
2023/12/22 07:13:15;;;;;;;4.57;1.60;;;;;;;6.38;100.00;153000.06;4993378;28;20542;-82
2023/12/22 07:15:42;;;;;;;2.60;1.17;;;;;;;6.37;100.00;152996.22;4988155;28;20450;-82
2023/12/22 07:18:08;;;;;;;2.27;1.03;;;;;;;6.39;100.00;153001.38;4996727;28;20447;-81
2023/12/22 07:20:35;;;;;;;3.80;1.33;;;;;;;6.39;100.00;153001.38;4997428;28;20453;-82
2023/12/22 07:23:01;;;;;;;3.10;1.20;;;;;;;6.36;100.00;152993.63;4984623;28;20458;-82
2023/12/22 07:25:28;;;;;;;3.43;1.30;;;;;;;6.36;100.00;152993.63;4997652;28;20464;-82
2023/12/22 07:27:55;;;;;;;3.90;1.40;;;;;;;6.36;100.00;152994.91;5000666;28;20465;-75
2023/12/22 07:30:22;;;;;;;3.10;1.50;;;;;;;6.35;100.00;152991.06;4977352;28;22023;-75
2023/12/22 07:32:52;;;;;;;5.47;1.57;;;;;;;6.34;100.00;152988.47;5000674;28;20897;-75
2023/12/22 07:35:18;;;;;;;3.73;1.37;;;;;;;6.32;100.00;152984.63;4999053;28;20466;-74
2023/12/22 07:37:45;;;;;;;3.07;1.27;;;;;;;6.29;100.00;152975.56;4991519;28;20467;-75
2023/12/22 07:40:12;;;;;;;1.80;1.13;;;;;;;6.30;100.00;152978.16;5000295;28;20452;-74
2023/12/22 07:42:39;;;;;;;2.63;1.50;;;;;;;6.30;100.00;152978.16;4996004;28;21000;-75
2023/12/22 07:45:07;;;;;;;3.77;1.33;;;;;;;6.31;100.00;152982.03;4998516;28;20842;-75
2023/12/22 07:47:36;;;;;;;5.70;1.43;;;;;;;6.32;100.00;152984.63;4996166;28;20440;-75
2023/12/22 07:50:03;;;;;;;3.03;1.20;;;;;;;6.34;100.00;152988.47;4998158;28;20484;-75
2023/12/22 07:52:29;;;;;;;3.73;1.30;;;;;;;6.34;100.00;152988.47;4978933;28;20474;-75
2023/12/22 07:54:56;;;;;;;1.57;1.00;;;;;;;6.34;100.00;152988.47;4988214;28;21006;-75
2023/12/22 07:57:22;;;;;;;2.83;1.13;;;;;;;6.31;100.00;152980.72;4996927;28;20535;-75
2023/12/22 07:59:49;;;;;;;3.80;1.07;;;;;;;6.30;100.00;152979.41;4996415;28;21211;-75
2023/12/22 08:02:15;;;;;;;3.00;1.33;;;;;;;6.28;100.00;152972.97;4981400;28;20471;-76
2023/12/22 08:04:43;;;;;;;4.53;1.63;;;;;;;6.27;100.00;152971.72;4993644;28;20474;-75
2023/12/22 08:07:09;;;;;;;1.73;1.20;;;;;;;6.26;100.00;152967.81;4997317;28;20456;-75
2023/12/22 08:09:36;;;;;;;1.87;1.03;;;;;;;6.24;100.00;152963.97;4998898;28;20476;-75
2023/12/22 08:12:03;;;;;;;2.63;1.10;;;;;;;6.22;100.00;152958.81;4985813;28;20461;-75
2023/12/22 08:14:29;;;;;;;4.77;1.30;;;;;;;6.22;100.00;152957.53;4989031;28;20452;-75
2023/12/22 08:16:56;;;;;;;3.90;1.43;;;;;;;6.20;100.00;152952.31;4996431;28;20456;-75
2023/12/22 08:19:22;;;;;;;5.97;1.30;;;;;;;6.20;100.00;152953.63;4998427;28;20453;-74
2023/12/22 08:21:50;;;;;;;7.87;2.10;;;;;;;6.17;100.00;152945.88;4983201;28;20461;-75
2023/12/22 08:24:17;;;;;;;8.17;1.80;;;;;;;6.16;100.00;152942.03;4991412;28;20917;-75
2023/12/22 08:26:43;;;;;;;3.47;0.90;;;;;;;6.14;100.00;152939.44;4990640;28;20453;-75
2023/12/22 08:29:10;;;;;;;2.90;1.43;;;;;;;6.11;100.00;152931.72;4996614;28;20461;-74
2023/12/22 08:31:36;;;;;;;3.60;1.73;;;;;;;6.15;100.00;152940.72;4995042;28;20982;-75
2023/12/22 08:34:03;;;;;;;4.07;1.93;;;;;;;6.16;100.00;152943.31;4996739;28;20865;-75
2023/12/22 08:36:29;;;;;;;6.53;2.00;;;;;;;6.15;100.00;152940.72;4997249;28;20461;-74
2023/12/22 08:38:57;;;;;;;4.03;2.30;;;;;;;6.12;100.00;152934.28;4996193;28;20551;-75
2023/12/22 08:41:24;;;;;;;4.50;2.07;;;;;;;6.17;100.00;152944.63;4997805;28;20461;-75
2023/12/22 08:43:52;;;;;;;4.20;1.53;;;;;;;6.18;100.00;152947.19;4995062;28;20460;-75
2023/12/22 08:46:21;;;;;;;4.67;1.83;;;;;;;6.22;100.00;152957.53;4997256;28;20544;-75
2023/12/22 08:48:48;;;;;;;2.90;1.57;;;;;;;6.23;100.00;152960.06;4998091;28;20508;-75
2023/12/22 08:51:14;;;;;;;6.27;2.27;;;;;;;6.25;100.00;152966.53;4989377;28;20484;-75
2023/12/22 08:53:41;;;;;;;3.67;1.90;;;;;;;6.26;100.00;152967.81;4995271;28;20467;-75
2023/12/22 08:56:09;;;;;;;3.97;2.10;;;;;;;6.28;100.00;152972.97;4994592;28;20457;-75
2023/12/22 08:58:36;;;;;;;4.10;1.60;;;;;;;6.32;100.00;152984.63;4995041;28;20460;-74
2023/12/22 09:01:02;;;;;;;4.20;1.90;;;;;;;6.33;100.00;152985.91;4997641;28;20973;-75
2023/12/22 09:03:30;;;;;;;6.70;2.23;;;;;;;6.33;100.00;152985.91;4996907;28;20854;-75
2023/12/22 09:05:56;;;;;;;4.90;2.00;;;;;;;6.31;100.00;152982.03;4995980;28;20858;-75
2023/12/22 09:08:23;;;;;;;3.73;1.40;;;;;;;6.32;100.00;152984.63;4997111;28;20456;-75
2023/12/22 09:10:49;;;;;;;5.20;1.87;;;;;;;6.31;100.00;152982.03;4997781;28;20877;-75
2023/12/22 09:13:17;;;;;;;6.53;2.10;;;;;;;6.32;100.00;152983.31;4994497;28;20556;-75
2023/12/22 09:15:46;;;;;;;4.30;1.70;;;;;;;6.37;100.00;152996.22;4993571;28;20463;-75
2023/12/22 09:18:13;;;;;;;5.80;1.90;;;;;;;6.37;100.00;152996.22;4974496;28;20953;-75
2023/12/22 09:20:40;;;;;;;3.13;1.50;;;;;;;6.38;100.00;152998.81;4997390;28;20474;-74
2023/12/22 09:23:08;;;;;;;5.23;2.10;;;;;;;6.41;100.00;153006.53;4994982;28;20839;-74
2023/12/22 09:25:34;;;;;;;9.43;2.47;;;;;;;6.42;100.00;153009.13;4996738;28;20457;-75
2023/12/22 09:28:01;;;;;;;5.37;2.13;;;;;;;6.42;100.00;153009.13;4995795;28;20804;-74
2023/12/22 09:30:29;;;;;;;8.00;2.07;;;;;;;6.44;100.00;153014.28;4999761;28;20480;-74
2023/12/22 09:32:58;;;;;;;7.10;2.53;;;;;;;6.44;100.00;153015.56;4992582;28;20527;-74
2023/12/22 09:35:26;;;;;;;4.73;2.00;;;;;;;6.47;100.00;153022.00;4980291;28;20530;-75
2023/12/22 09:37:53;;;;;;;3.90;1.90;;;;;;;6.49;100.00;153027.16;4967809;28;20490;-75
2023/12/22 09:40:21;;;;;;;4.47;1.63;;;;;;;6.48;100.00;153025.91;4999165;28;20448;-75
2023/12/22 09:42:48;;;;;;;5.73;1.73;;;;;;;6.48;100.00;153025.91;4995140;28;20472;-75
2023/12/22 09:45:18;;;;;;;10.43;2.30;;;;;;;6.47;100.00;153022.00;4995490;28;20444;-75
2023/12/22 09:47:46;;;;;;;3.33;2.03;;;;;;;6.49;100.00;153028.47;4995765;28;20457;-75
2023/12/22 09:50:14;;;;;;;8.30;2.50;;;;;;;6.51;100.00;153032.38;4998127;28;20489;-75
2023/12/22 09:52:43;;;;;;;4.63;2.37;;;;;;;6.51;100.00;153032.38;4992709;28;20448;-75
2023/12/22 09:55:13;;;;;;;6.60;2.40;;;;;;;6.51;100.00;153032.38;4997226;28;20456;-75
2023/12/22 09:57:43;;;;;;;8.47;2.07;;;;;;;6.52;100.00;153034.91;4996530;28;20814;-75
2023/12/22 10:00:12;;;;;;;5.40;2.37;;;;;;;6.55;100.00;153042.66;4993956;28;20455;-75
2023/12/22 10:02:41;;;;;;;5.57;2.50;;;;;;;6.60;100.00;153055.56;4997390;28;20907;-75
2023/12/22 10:05:10;;;;;;;5.10;1.80;;;;;;;6.61;100.00;153058.16;4996153;28;20449;-75
2023/12/22 10:07:36;;;;;;;5.70;2.10;;;;;;;6.63;100.00;153063.31;4953872;28;20442;-75
2023/12/22 10:10:05;;;;;;;7.83;2.10;;;;;;;6.61;100.00;153058.16;4993712;28;20483;-75
2023/12/22 10:12:35;;;;;;;7.40;2.47;;;;;;;6.63;100.00;153064.63;4994452;28;20568;-75
2023/12/22 10:15:02;;;;;;;6.67;2.13;;;;;;;6.63;100.00;153064.63;4997481;28;20820;-75
2023/12/22 10:17:30;;;;;;;9.53;2.77;;;;;;;6.63;100.00;153064.63;4992960;28;20442;-75
2023/12/22 10:19:56;;;;;;;7.63;2.30;;;;;;;6.58;100.00;153050.41;4995850;28;20456;-75
2023/12/22 10:22:24;;;;;;;6.70;2.40;;;;;;;6.62;100.00;153060.72;4993880;28;20467;-75
2023/12/22 10:24:51;;;;;;;3.20;1.83;;;;;;;6.65;100.00;153068.47;4997560;28;20457;-75
2023/12/22 10:27:22;;;;;;;5.63;2.00;;;;;;;6.66;100.00;153071.06;4992785;28;20476;-75
2023/12/22 10:29:49;;;;;;;5.50;2.13;;;;;;;6.69;100.00;153078.81;4995010;28;20476;-75
2023/12/22 10:32:15;;;;;;;5.50;2.27;;;;;;;6.70;100.00;153082.66;4995206;28;20933;-75
2023/12/22 10:34:42;;;;;;;4.30;2.00;;;;;;;6.71;100.00;153083.97;4997384;28;20502;-75
2023/12/22 10:37:09;;;;;;;3.40;1.70;;;;;;;6.70;100.00;153082.66;4993955;28;20899;-75
2023/12/22 10:39:37;;;;;;;5.70;1.93;;;;;;;6.71;100.00;153083.97;4997155;28;20540;-75
2023/12/22 10:42:04;;;;;;;7.80;2.33;;;;;;;6.76;100.00;153096.88;4994156;28;20511;-75
2023/12/22 10:44:31;;;;;;;3.00;1.90;;;;;;;6.76;100.00;153096.88;4978486;28;20967;-75
2023/12/22 10:46:58;;;;;;;3.47;1.77;;;;;;;6.79;100.00;153103.31;4991472;28;20468;-75
2023/12/22 10:49:25;;;;;;;5.60;1.60;;;;;;;6.81;100.00;153109.78;4994347;28;20453;-75
2023/12/22 10:51:53;;;;;;;5.37;1.80;;;;;;;6.84;100.00;153116.22;5001214;28;20488;-74
2023/12/22 10:54:20;;;;;;;3.30;1.80;;;;;;;6.87;100.00;153125.28;4999542;28;20457;-74
2023/12/22 10:56:48;;;;;;;5.73;1.60;;;;;;;6.88;100.00;153127.88;4998763;28;20463;-74
2023/12/22 10:59:17;;;;;;;5.67;1.93;;;;;;;6.90;100.00;153133.03;5001130;28;20461;-74
2023/12/22 11:01:46;;;;;;;2.27;1.27;;;;;;;6.92;100.00;153138.19;4999958;28;20457;-75
2023/12/22 11:04:14;;;;;;;10.00;2.17;;;;;;;6.92;100.00;153138.19;4997808;28;20477;-75
2023/12/22 11:06:42;;;;;;;2.70;1.60;;;;;;;6.92;100.00;153138.19;4990581;28;20461;-75
2023/12/22 11:09:10;;;;;;;3.23;1.17;;;;;;;6.94;100.00;153142.03;4999185;28;20547;-75
2023/12/22 11:11:38;;;;;;;2.63;1.10;;;;;;;6.96;100.00;153147.25;5001866;28;20487;-75
2023/12/22 11:14:07;;;;;;;2.90;1.27;;;;;;;6.96;100.00;153147.25;4996924;28;20516;-75
2023/12/22 11:16:34;;;;;;;4.80;1.53;;;;;;;6.93;100.00;153140.78;4996711;28;20556;-75
2023/12/22 11:19:02;;;;;;;3.43;1.33;;;;;;;6.91;100.00;153135.59;4978346;28;20968;-75
2023/12/22 11:21:29;;;;;;;7.00;1.23;;;;;;;6.92;100.00;153138.19;4995693;28;20454;-75
2023/12/22 11:23:58;;;;;;;4.40;1.63;;;;;;;6.90;100.00;153133.03;4992942;28;20479;-75
2023/12/22 11:26:25;;;;;;;3.53;1.30;;;;;;;6.93;100.00;153140.78;4995630;28;20998;-75